createdAt,value
2023-12-23T00:02:49.711Z,1008
2023-12-23T00:05:51.280Z,1008
2023-12-23T00:08:52.851Z,1007
2023-12-23T00:11:54.381Z,1007
2023-12-23T00:14:55.866Z,1007
2023-12-23T00:17:57.714Z,1007
2023-12-23T00:20:59.930Z,1007
2023-12-23T00:24:01.552Z,1007
2023-12-23T00:27:03.041Z,1007
2023-12-23T00:30:04.541Z,1007
2023-12-23T00:33:06.673Z,1007
2023-12-23T00:36:08.542Z,1007
2023-12-23T00:39:10.043Z,1007
2023-12-23T00:42:11.544Z,1007
2023-12-23T00:45:13.041Z,1007
2023-12-23T00:48:14.703Z,1007
2023-12-23T00:51:16.270Z,1007
2023-12-23T00:54:17.771Z,1007
2023-12-23T00:57:19.282Z,1006
2023-12-23T01:00:20.782Z,1006
2023-12-23T01:03:22.305Z,1006
2023-12-23T01:06:23.859Z,1006
2023-12-23T01:09:25.459Z,1006
2023-12-23T01:12:26.968Z,1006
2023-12-23T01:15:28.453Z,1006
2023-12-23T01:18:29.990Z,1006
2023-12-23T01:21:31.563Z,1006
2023-12-23T01:24:33.062Z,1006
2023-12-23T01:27:34.598Z,1006
2023-12-23T01:30:36.123Z,1006
2023-12-23T01:33:37.718Z,1006
2023-12-23T01:36:39.329Z,1006
2023-12-23T01:39:40.827Z,1006
2023-12-23T01:42:42.373Z,1006
2023-12-23T01:45:43.964Z,1006
2023-12-23T01:48:45.494Z,1006
2023-12-23T01:51:47.061Z,1006
2023-12-23T01:54:48.571Z,1006
2023-12-23T01:57:50.198Z,1006
2023-12-23T02:00:51.895Z,1006
2023-12-23T02:03:53.439Z,1006
2023-12-23T02:06:54.973Z,1006
2023-12-23T02:09:56.501Z,1006
2023-12-23T02:13:08.997Z,1006
2023-12-23T02:16:14.089Z,1006
2023-12-23T02:19:16.749Z,1006
2023-12-23T02:22:18.279Z,1006
2023-12-23T02:25:19.788Z,1006
2023-12-23T02:28:21.311Z,1006
2023-12-23T02:31:22.956Z,1006
2023-12-23T02:34:24.580Z,1006
2023-12-23T02:37:26.073Z,1006
2023-12-23T02:40:27.577Z,1006
2023-12-23T02:43:29.108Z,1006
2023-12-23T02:46:30.618Z,1006
2023-12-23T02:49:32.100Z,1006
2023-12-23T02:52:33.616Z,1006
2023-12-23T02:55:35.131Z,1006
2023-12-23T02:58:36.687Z,1006
2023-12-23T03:01:38.258Z,1006
2023-12-23T03:04:39.820Z,1006
2023-12-23T03:07:41.373Z,1006
2023-12-23T03:10:42.942Z,1006
2023-12-23T03:13:44.492Z,1006
2023-12-23T03:16:46.000Z,1006
2023-12-23T03:19:47.573Z,1006
2023-12-23T03:22:49.553Z,1006
2023-12-23T03:25:51.262Z,1006
2023-12-23T03:28:52.827Z,1006
2023-12-23T03:31:54.394Z,1006
2023-12-23T03:34:56.014Z,1006
2023-12-23T03:37:57.569Z,1006
2023-12-23T03:40:59.180Z,1006
2023-12-23T03:44:00.748Z,1006
2023-12-23T03:47:02.410Z,1006
2023-12-23T03:50:04.107Z,1006
2023-12-23T03:53:05.797Z,1006
2023-12-23T03:56:07.357Z,1006
2023-12-23T03:59:08.880Z,1006
2023-12-23T04:02:10.384Z,1006
2023-12-23T04:05:13.050Z,1006
2023-12-23T04:08:14.645Z,1006
2023-12-23T04:11:16.218Z,1006
2023-12-23T04:14:17.982Z,1006
2023-12-23T04:17:19.587Z,1006
2023-12-23T04:20:21.394Z,1006
2023-12-23T04:23:23.035Z,1006
2023-12-23T04:26:24.638Z,1006
2023-12-23T04:29:26.178Z,1006
2023-12-23T04:32:27.999Z,1006
2023-12-23T04:35:29.662Z,1006
2023-12-23T04:38:31.160Z,1006
2023-12-23T04:41:32.638Z,1006
2023-12-23T04:44:34.207Z,1006
2023-12-23T04:47:35.745Z,1006
2023-12-23T04:50:37.305Z,1006
2023-12-23T04:53:38.822Z,1006
2023-12-23T04:56:40.323Z,1006
2023-12-23T04:59:41.858Z,1006
2023-12-23T05:02:43.910Z,1006
2023-12-23T05:05:45.537Z,1006
2023-12-23T05:08:47.161Z,1006
2023-12-23T05:11:48.657Z,1006
2023-12-23T05:14:50.168Z,1006
2023-12-23T05:17:51.758Z,1006
2023-12-23T05:20:53.328Z,1006
2023-12-23T05:23:54.827Z,1006
2023-12-23T05:26:57.630Z,1006
2023-12-23T05:30:00.557Z,1006
2023-12-23T05:33:02.193Z,1006
2023-12-23T05:36:03.713Z,1006
2023-12-23T05:39:05.211Z,1006
2023-12-23T05:42:06.701Z,1006
2023-12-23T05:45:08.203Z,1006
2023-12-23T05:48:09.884Z,1006
2023-12-23T05:51:11.412Z,1005
2023-12-23T05:54:12.902Z,1006
2023-12-23T05:57:14.386Z,1006
2023-12-23T06:00:15.869Z,1006
2023-12-23T06:03:17.845Z,1006
2023-12-23T06:06:19.443Z,1006
2023-12-23T06:09:20.985Z,1006
2023-12-23T06:12:22.477Z,1006
2023-12-23T06:15:23.967Z,1005
2023-12-23T06:18:25.545Z,1005
2023-12-23T06:21:27.091Z,1005
2023-12-23T06:24:28.581Z,1005
2023-12-23T06:27:30.086Z,1005
2023-12-23T06:30:31.597Z,1005
2023-12-23T06:33:33.227Z,1005
2023-12-23T06:36:34.820Z,1005
2023-12-23T06:39:36.352Z,1005
2023-12-23T06:42:37.834Z,1005
2023-12-23T06:45:39.318Z,1005
2023-12-23T06:48:40.957Z,1005
2023-12-23T06:51:42.563Z,1005
2023-12-23T06:54:44.031Z,1005
2023-12-23T06:57:45.549Z,1006
2023-12-23T07:00:48.026Z,1006
2023-12-23T07:03:49.579Z,1006
2023-12-23T07:06:51.072Z,1006
2023-12-23T07:09:59.027Z,1006
2023-12-23T07:13:06.195Z,1006
2023-12-23T07:16:07.725Z,1006
2023-12-23T07:19:09.298Z,1006
2023-12-23T07:22:10.827Z,1006
2023-12-23T07:25:12.307Z,1006
2023-12-23T07:28:13.812Z,1006
2023-12-23T07:31:15.319Z,1006
2023-12-23T07:34:16.903Z,1006
2023-12-23T07:37:18.426Z,1006
2023-12-23T07:40:20.016Z,1006
2023-12-23T07:43:21.537Z,1006
2023-12-23T07:46:23.027Z,1006
2023-12-23T07:49:24.531Z,1006
2023-12-23T07:52:26.044Z,1006
2023-12-23T07:55:27.654Z,1006
2023-12-23T07:58:29.152Z,1006
2023-12-23T08:01:30.678Z,1006
2023-12-23T08:04:32.172Z,1006
2023-12-23T08:07:33.686Z,1006
2023-12-23T08:10:36.094Z,1006
2023-12-23T08:13:37.629Z,1006
2023-12-23T08:16:39.140Z,1006
2023-12-23T08:19:40.664Z,1006
2023-12-23T08:22:42.289Z,1006
2023-12-23T08:25:44.002Z,1006
2023-12-23T08:28:47.088Z,1006
2023-12-23T08:31:48.966Z,1006
2023-12-23T08:34:50.547Z,1006
2023-12-23T08:37:52.457Z,1006
2023-12-23T08:40:54.100Z,1006
2023-12-23T08:43:55.674Z,1006
2023-12-23T08:46:57.246Z,1006
2023-12-23T08:49:58.803Z,1006
2023-12-23T08:53:00.502Z,1006
2023-12-23T08:56:02.122Z,1006
2023-12-23T08:59:03.647Z,1006
2023-12-23T09:02:05.306Z,1006
2023-12-23T09:05:06.940Z,1006
2023-12-23T09:08:08.593Z,1006
2023-12-23T09:11:10.241Z,1006
2023-12-23T09:14:11.830Z,1006
2023-12-23T09:17:13.384Z,1006
2023-12-23T09:20:15.018Z,1006
2023-12-23T09:23:16.647Z,1006
2023-12-23T09:26:18.279Z,1006
2023-12-23T09:29:19.836Z,1007
2023-12-23T09:32:21.619Z,1007
2023-12-23T09:35:23.226Z,1006
2023-12-23T09:38:24.821Z,1006
2023-12-23T09:41:26.398Z,1006
2023-12-23T09:44:28.033Z,1007
2023-12-23T09:47:29.839Z,1006
2023-12-23T09:50:31.447Z,1006
2023-12-23T09:53:33.063Z,1006
2023-12-23T09:56:34.583Z,1006
2023-12-23T09:59:36.081Z,1006
2023-12-23T10:02:38.571Z,1006
2023-12-23T10:05:40.358Z,1006
2023-12-23T10:08:42.225Z,1006
2023-12-23T10:11:43.736Z,1006
2023-12-23T10:14:45.533Z,1006
2023-12-23T10:17:47.223Z,1006
2023-12-23T10:20:48.808Z,1006
2023-12-23T10:23:50.337Z,1006
2023-12-23T10:26:51.834Z,1006
2023-12-23T10:29:53.334Z,1006
2023-12-23T10:32:55.122Z,1006
2023-12-23T10:35:56.845Z,1006
2023-12-23T10:38:58.377Z,1006
2023-12-23T10:41:59.892Z,1006
2023-12-23T10:45:01.392Z,1007
2023-12-23T10:48:03.022Z,1006
2023-12-23T10:51:04.651Z,1006
2023-12-23T10:54:06.168Z,1006
2023-12-23T10:57:07.683Z,1006
2023-12-23T11:00:09.188Z,1006
2023-12-23T11:03:10.735Z,1006
2023-12-23T11:06:12.366Z,1006
2023-12-23T11:09:13.981Z,1006
2023-12-23T11:12:15.481Z,1006
2023-12-23T11:15:18.046Z,1006
2023-12-23T11:18:19.674Z,1006
2023-12-23T11:21:21.225Z,1006
2023-12-23T11:24:22.704Z,1005
2023-12-23T11:27:24.192Z,1005
2023-12-23T11:30:25.793Z,1005
2023-12-23T11:33:27.401Z,1005
2023-12-23T11:36:28.948Z,1005
2023-12-23T11:39:30.438Z,1005
2023-12-23T11:42:32.061Z,1005
2023-12-23T11:45:34.045Z,1005
2023-12-23T11:48:35.692Z,1005
2023-12-23T11:51:37.378Z,1005
2023-12-23T11:54:38.966Z,1005
2023-12-23T11:57:40.498Z,1005
2023-12-23T12:00:42.192Z,1005
2023-12-23T12:03:43.801Z,1005
2023-12-23T12:06:45.311Z,1005
2023-12-23T12:09:46.807Z,1006
2023-12-23T12:12:49.175Z,1006
2023-12-23T12:15:50.825Z,1006
2023-12-23T12:18:52.392Z,1006
2023-12-23T12:21:54.043Z,1006
2023-12-23T12:24:55.551Z,1006
2023-12-23T12:27:57.056Z,1006
2023-12-23T12:30:58.774Z,1006
2023-12-23T12:34:00.502Z,1006
2023-12-23T12:37:02.165Z,1006
2023-12-23T12:40:04.255Z,1006
2023-12-23T12:43:05.896Z,1006
2023-12-23T12:46:07.480Z,1006
2023-12-23T12:49:09.132Z,1006
2023-12-23T12:52:10.674Z,1006
2023-12-23T12:55:12.247Z,1006
2023-12-23T12:58:14.913Z,1006
2023-12-23T13:01:16.486Z,1006
2023-12-23T13:04:18.015Z,1006
2023-12-23T13:07:19.564Z,1006
2023-12-23T13:10:21.081Z,1006
2023-12-23T13:13:22.599Z,1006
2023-12-23T13:16:24.120Z,1006
2023-12-23T13:19:25.730Z,1006
2023-12-23T13:22:27.287Z,1005
2023-12-23T13:25:28.845Z,1005
2023-12-23T13:28:30.324Z,1006
2023-12-23T13:31:31.836Z,1006
2023-12-23T13:34:33.400Z,1006
2023-12-23T13:37:34.957Z,1006
2023-12-23T13:40:36.914Z,1006
2023-12-23T13:43:38.470Z,1006
2023-12-23T13:46:39.995Z,1006
2023-12-23T13:49:41.781Z,1006
2023-12-23T13:52:43.357Z,1006
2023-12-23T13:55:45.234Z,1006
2023-12-23T13:58:46.869Z,1006
2023-12-23T14:01:48.469Z,1006
2023-12-23T14:04:49.994Z,1006
2023-12-23T14:07:51.597Z,1006
2023-12-23T14:10:53.136Z,1006
2023-12-23T14:13:54.685Z,1005
2023-12-23T14:16:56.309Z,1005
2023-12-23T14:19:57.919Z,1005
2023-12-23T14:22:59.506Z,1005
2023-12-23T14:26:01.085Z,1005
2023-12-23T14:29:02.740Z,1005
2023-12-23T14:32:04.790Z,1005
2023-12-23T14:35:06.400Z,1005
2023-12-23T14:38:09.008Z,1005
2023-12-23T14:41:11.967Z,1005
2023-12-23T14:44:14.296Z,1005
2023-12-23T14:47:15.886Z,1005
2023-12-23T14:50:18.418Z,1005
2023-12-23T14:53:20.780Z,1005
2023-12-23T14:56:22.390Z,1005
2023-12-23T14:59:24.432Z,1005
2023-12-23T15:02:26.059Z,1005
2023-12-23T15:05:28.613Z,1005
2023-12-23T15:08:30.529Z,1005
2023-12-23T15:11:32.109Z,1005
2023-12-23T15:14:33.628Z,1005
2023-12-23T15:17:36.259Z,1005
2023-12-23T15:20:39.249Z,1006
2023-12-23T15:23:42.377Z,1006
2023-12-23T15:26:44.561Z,1006
2023-12-23T15:29:46.200Z,1006
2023-12-23T15:32:47.968Z,1006
2023-12-23T15:35:50.272Z,1006
2023-12-23T15:38:52.188Z,1005
2023-12-23T15:41:54.499Z,1005
2023-12-23T15:44:56.142Z,1005
2023-12-23T15:47:58.583Z,1005
2023-12-23T15:51:01.275Z,1005
2023-12-23T15:54:03.305Z,1005
2023-12-23T15:57:04.956Z,1005
2023-12-23T16:00:09.177Z,1005
2023-12-23T16:03:10.812Z,1005
2023-12-23T16:06:12.435Z,1005
2023-12-23T16:09:14.812Z,1005
2023-12-23T16:12:16.504Z,1005
2023-12-23T16:15:18.158Z,1005
2023-12-23T16:18:20.927Z,1005
2023-12-23T16:21:22.504Z,1005
2023-12-23T16:24:24.012Z,1005
2023-12-23T16:27:25.556Z,1005
2023-12-23T16:30:28.312Z,1005
2023-12-23T16:33:31.301Z,1005
2023-12-23T16:36:32.940Z,1005
2023-12-23T16:39:36.110Z,1005
2023-12-23T16:42:39.125Z,1005
2023-12-23T16:45:41.574Z,1005
2023-12-23T16:48:43.304Z,1005
2023-12-23T16:51:44.897Z,1005
2023-12-23T16:54:46.409Z,1005
2023-12-23T16:57:47.888Z,1005
2023-12-23T17:00:49.443Z,1005
2023-12-23T17:03:51.044Z,1005
2023-12-23T17:06:52.608Z,1005
2023-12-23T17:09:54.098Z,1005
2023-12-23T17:12:55.618Z,1005
2023-12-23T17:15:57.207Z,1005
2023-12-23T17:18:58.763Z,1005
2023-12-23T17:22:00.316Z,1005
2023-12-23T17:25:01.857Z,1005
2023-12-23T17:28:04.827Z,1005
2023-12-23T17:31:07.788Z,1005
2023-12-23T17:34:09.391Z,1005
2023-12-23T17:37:10.964Z,1005
2023-12-23T17:40:12.533Z,1005
2023-12-23T17:43:14.036Z,1005
2023-12-23T17:46:16.697Z,1005
2023-12-23T17:49:18.601Z,1005
2023-12-23T17:52:20.566Z,1005
2023-12-23T17:55:22.299Z,1005
2023-12-23T17:58:25.079Z,1005
2023-12-23T18:01:26.957Z,1005
2023-12-23T18:04:29.499Z,1005
2023-12-23T18:07:31.650Z,1005
2023-12-23T18:10:34.585Z,1005
2023-12-23T18:13:37.439Z,1005
2023-12-23T18:16:39.398Z,1005
2023-12-23T18:19:41.334Z,1005
2023-12-23T18:22:43.490Z,1005
2023-12-23T18:25:46.580Z,1005
2023-12-23T18:28:48.913Z,1005
2023-12-23T18:31:51.586Z,1005
2023-12-23T18:34:55.765Z,1004
2023-12-23T18:37:57.841Z,1004
2023-12-23T18:40:59.636Z,1004
2023-12-23T18:44:02.677Z,1004
2023-12-23T18:47:04.332Z,1004
2023-12-23T18:50:05.883Z,1004
2023-12-23T18:53:07.481Z,1004
2023-12-23T18:56:09.865Z,1004
2023-12-23T18:59:12.179Z,1004
2023-12-23T19:02:13.767Z,1004
2023-12-23T19:05:16.139Z,1004
2023-12-23T19:08:19.832Z,1004
2023-12-23T19:11:22.118Z,1004
2023-12-23T19:14:23.885Z,1004
2023-12-23T19:17:26.361Z,1004
2023-12-23T19:20:28.235Z,1004
2023-12-23T19:23:30.369Z,1004
2023-12-23T19:26:33.051Z,1004
2023-12-23T19:29:35.117Z,1004
2023-12-23T19:32:37.275Z,1004
2023-12-23T19:35:38.983Z,1004
2023-12-23T19:38:40.655Z,1004
2023-12-23T19:41:42.634Z,1004
2023-12-23T19:44:44.127Z,1004
2023-12-23T19:47:46.583Z,1004
2023-12-23T19:50:49.700Z,1004
2023-12-23T19:53:51.492Z,1004
2023-12-23T19:56:53.700Z,1004
2023-12-23T19:59:55.747Z,1003
2023-12-23T20:02:57.755Z,1003
2023-12-23T20:05:59.613Z,1003
2023-12-23T20:09:01.972Z,1003
2023-12-23T20:12:03.492Z,1003
2023-12-23T20:15:05.012Z,1003
2023-12-23T20:18:06.801Z,1003
2023-12-23T20:21:08.667Z,1003
2023-12-23T20:24:10.340Z,1003
2023-12-23T20:27:13.340Z,1003
2023-12-23T20:30:15.085Z,1003
2023-12-23T20:33:17.351Z,1003
2023-12-23T20:36:21.211Z,1003
2023-12-23T20:39:27.163Z,1003
2023-12-23T20:42:30.199Z,1003
2023-12-23T20:45:31.712Z,1003
2023-12-23T20:48:33.407Z,1003
2023-12-23T20:51:35.018Z,1003
2023-12-23T20:54:36.518Z,1003
2023-12-23T20:57:38.080Z,1003
2023-12-23T21:00:40.463Z,1003
2023-12-23T21:03:42.088Z,1003
2023-12-23T21:06:43.646Z,1003
2023-12-23T21:09:45.162Z,1003
2023-12-23T21:12:46.661Z,1002
2023-12-23T21:15:48.146Z,1002
2023-12-23T21:18:49.805Z,1002
2023-12-23T21:21:51.475Z,1002
2023-12-23T21:24:53.026Z,1002
2023-12-23T21:27:54.589Z,1002
2023-12-23T21:30:56.195Z,1002
2023-12-23T21:33:57.828Z,1002
2023-12-23T21:36:59.391Z,1002
2023-12-23T21:40:00.925Z,1002
2023-12-23T21:43:02.486Z,1002
2023-12-23T21:46:04.032Z,1002
2023-12-23T21:49:05.553Z,1002
2023-12-23T21:52:07.076Z,1002
2023-12-23T21:55:08.630Z,1002
2023-12-23T21:58:10.172Z,1002
2023-12-23T22:01:11.695Z,1002
2023-12-23T22:04:13.195Z,1002
2023-12-23T22:07:14.729Z,1001
2023-12-23T22:10:16.212Z,1001
2023-12-23T22:13:17.773Z,1001
2023-12-23T22:16:19.278Z,1001
2023-12-23T22:19:20.953Z,1001
2023-12-23T22:22:22.623Z,1001
2023-12-23T22:25:24.259Z,1001
2023-12-23T22:28:25.869Z,1001
2023-12-23T22:31:27.423Z,1001
2023-12-23T22:34:28.992Z,1001
2023-12-23T22:37:30.496Z,1001
2023-12-23T22:40:31.994Z,1001
2023-12-23T22:43:33.525Z,1001
2023-12-23T22:46:37.473Z,1001
2023-12-23T22:49:40.420Z,1001
2023-12-23T22:52:41.928Z,1000
2023-12-23T22:55:43.425Z,1000
2023-12-23T22:58:44.935Z,1000
2023-12-23T23:01:46.431Z,1000
2023-12-23T23:04:48.004Z,1000
2023-12-23T23:07:49.604Z,1000
2023-12-23T23:10:51.216Z,1000
2023-12-23T23:13:52.802Z,1000
2023-12-23T23:16:54.387Z,1000
2023-12-23T23:19:56.038Z,1000
2023-12-23T23:22:57.635Z,1000
2023-12-23T23:25:59.180Z,1000
2023-12-23T23:29:00.743Z,1000
2023-12-23T23:32:03.462Z,1000
2023-12-23T23:35:11.224Z,1000
2023-12-23T23:38:14.269Z,1000
2023-12-23T23:41:15.872Z,1000
2023-12-23T23:44:17.457Z,1000
2023-12-23T23:47:18.998Z,1000
2023-12-23T23:50:20.777Z,1000
2023-12-23T23:53:22.309Z,1000
2023-12-23T23:56:24.002Z,1000
2023-12-23T23:59:25.796Z,1000
